sensor_id;sensor_type;location;lat;lon;timestamp;pressure;altitude;pressure_sealevel;temperature;humidity
69737;BME280;64476;55.004;73.342;2023-05-15T00:00:50;100603.22;;;5.97;44.86
69737;BME280;64476;55.004;73.342;2023-05-15T00:03:56;100517.28;;;5.44;44.72
69737;BME280;64476;55.004;73.342;2023-05-15T00:06:57;100650.88;;;6.20;44.97
69737;BME280;64476;55.004;73.342;2023-05-15T00:09:59;100653.06;;;6.25;45.07
69737;BME280;64476;55.004;73.342;2023-05-15T00:13:01;100652.47;;;6.32;44.80
69737;BME280;64476;55.004;73.342;2023-05-15T00:16:06;100667.22;;;6.43;45.53
69737;BME280;64476;55.004;73.342;2023-05-15T00:19:08;100673.81;;;6.47;45.50
69737;BME280;64476;55.004;73.342;2023-05-15T00:22:10;100664.72;;;6.42;44.89
69737;BME280;64476;55.004;73.342;2023-05-15T00:25:12;100673.81;;;6.47;45.21
69737;BME280;64476;55.004;73.342;2023-05-15T00:28:14;100685.09;;;6.48;45.15
69737;BME280;64476;55.004;73.342;2023-05-15T00:31:15;100643.09;;;6.30;45.10
69737;BME280;64476;55.004;73.342;2023-05-15T00:34:25;100680.19;;;6.54;45.49
69737;BME280;64476;55.004;73.342;2023-05-15T00:37:27;100661.91;;;6.54;45.28
69737;BME280;64476;55.004;73.342;2023-05-15T00:40:29;100679.69;;;6.70;45.36
69737;BME280;64476;55.004;73.342;2023-05-15T00:43:38;100682.03;;;6.73;45.90
69737;BME280;64476;55.004;73.342;2023-05-15T00:46:40;100672.41;;;6.74;45.23
69737;BME280;64476;55.004;73.342;2023-05-15T00:49:43;100653.25;;;6.63;45.11
69737;BME280;64476;55.004;73.342;2023-05-15T00:52:45;100658.13;;;6.68;45.33
69737;BME280;64476;55.004;73.342;2023-05-15T00:55:48;100655.78;;;6.75;45.15
69737;BME280;64476;55.004;73.342;2023-05-15T00:58:52;100680.44;;;6.92;45.10
69737;BME280;64476;55.004;73.342;2023-05-15T01:01:59;100637.38;;;6.76;45.82
69737;BME280;64476;55.004;73.342;2023-05-15T01:05:02;100670.28;;;7.08;45.25
69737;BME280;64476;55.004;73.342;2023-05-15T01:08:26;100656.28;;;7.09;45.38
69737;BME280;64476;55.004;73.342;2023-05-15T01:11:29;100672.78;;;7.19;45.41
69737;BME280;64476;55.004;73.342;2023-05-15T01:14:36;100669.91;;;7.22;45.55
69737;BME280;64476;55.004;73.342;2023-05-15T01:17:38;100668.56;;;7.28;44.99
69737;BME280;64476;55.004;73.342;2023-05-15T01:27:53;100682.34;;;7.49;45.36
69737;BME280;64476;55.004;73.342;2023-05-15T01:30:56;100691.00;;;7.59;45.77
69737;BME280;64476;55.004;73.342;2023-05-15T01:34:06;100676.28;;;7.58;45.36
69737;BME280;64476;55.004;73.342;2023-05-15T01:37:09;100699.25;;;7.74;45.09
69737;BME280;64476;55.004;73.342;2023-05-15T01:40:14;100669.94;;;7.61;45.25
69737;BME280;64476;55.004;73.342;2023-05-15T01:43:21;100682.34;;;7.78;46.02
69737;BME280;64476;55.004;73.342;2023-05-15T01:46:26;100688.66;;;7.85;45.70
69737;BME280;64476;55.004;73.342;2023-05-15T01:49:34;100654.38;;;7.69;45.76
69737;BME280;64476;55.004;73.342;2023-05-15T01:52:41;100707.94;;;8.14;45.78
69737;BME280;64476;55.004;73.342;2023-05-15T01:55:45;100712.19;;;8.24;45.99
69737;BME280;64476;55.004;73.342;2023-05-15T01:58:49;100709.00;;;8.30;45.84
69737;BME280;64476;55.004;73.342;2023-05-15T02:01:58;100674.44;;;8.17;45.58
69737;BME280;64476;55.004;73.342;2023-05-15T02:05:01;100719.44;;;8.50;46.23
69737;BME280;64476;55.004;73.342;2023-05-15T02:08:05;100688.56;;;8.44;46.03
69737;BME280;64476;55.004;73.342;2023-05-15T02:11:08;100668.44;;;8.44;45.71
69737;BME280;64476;55.004;73.342;2023-05-15T02:14:11;100706.88;;;8.81;45.49
69737;BME280;64476;55.004;73.342;2023-05-15T02:17:15;100697.06;;;8.93;45.60
69737;BME280;64476;55.004;73.342;2023-05-15T02:20:19;100715.75;;;9.08;46.01
69737;BME280;64476;55.004;73.342;2023-05-15T02:23:53;100649.88;;;8.65;45.83
69737;BME280;64476;55.004;73.342;2023-05-15T02:28:02;100725.03;;;9.29;45.73
69737;BME280;64476;55.004;73.342;2023-05-15T02:30:47;100703.38;;;9.27;45.84
69737;BME280;64476;55.004;73.342;2023-05-15T02:37:13;100730.22;;;9.57;45.00
69737;BME280;64476;55.004;73.342;2023-05-15T02:40:17;100737.63;;;9.62;44.85
69737;BME280;64476;55.004;73.342;2023-05-15T02:43:21;100714.47;;;9.57;45.02
69737;BME280;64476;55.004;73.342;2023-05-15T02:46:54;100729.00;;;9.69;44.81
69737;BME280;64476;55.004;73.342;2023-05-15T02:50:01;100739.44;;;9.79;45.40
69737;BME280;64476;55.004;73.342;2023-05-15T02:53:07;100697.47;;;9.61;45.13
69737;BME280;64476;55.004;73.342;2023-05-15T02:56:10;100694.59;;;9.72;44.64
69737;BME280;64476;55.004;73.342;2023-05-15T02:59:12;100742.13;;;10.05;44.87
69737;BME280;64476;55.004;73.342;2023-05-15T03:02:19;100732.59;;;10.04;44.58
69737;BME280;64476;55.004;73.342;2023-05-15T03:05:53;100730.72;;;10.14;44.28
69737;BME280;64476;55.004;73.342;2023-05-15T03:08:55;100741.28;;;10.22;44.57
69737;BME280;64476;55.004;73.342;2023-05-15T03:11:57;100746.06;;;10.27;44.48
69737;BME280;64476;55.004;73.342;2023-05-15T03:14:59;100705.06;;;10.08;45.05
69737;BME280;64476;55.004;73.342;2023-05-15T03:18:05;100733.16;;;10.34;44.44
69737;BME280;64476;55.004;73.342;2023-05-15T03:21:07;100742.41;;;10.46;44.45
69737;BME280;64476;55.004;73.342;2023-05-15T03:24:09;100738.25;;;10.61;44.57
69737;BME280;64476;55.004;73.342;2023-05-15T03:27:11;100718.19;;;10.52;43.99
69737;BME280;64476;55.004;73.342;2023-05-15T03:30:12;100705.19;;;10.50;44.44
69737;BME280;64476;55.004;73.342;2023-05-15T03:33:14;100742.31;;;10.82;43.88
69737;BME280;64476;55.004;73.342;2023-05-15T03:36:16;100742.66;;;10.87;43.88
69737;BME280;64476;55.004;73.342;2023-05-15T03:39:25;100750.94;;;11.00;43.84
69737;BME280;64476;55.004;73.342;2023-05-15T03:42:33;100750.16;;;11.16;43.38
69737;BME280;64476;55.004;73.342;2023-05-15T03:45:38;100754.63;;;11.23;43.35
69737;BME280;64476;55.004;73.342;2023-05-15T03:48:40;100719.72;;;11.05;43.46
69737;BME280;64476;55.004;73.342;2023-05-15T03:51:44;100742.50;;;11.31;43.02
69737;BME280;64476;55.004;73.342;2023-05-15T03:54:53;100715.00;;;11.17;43.07
69737;BME280;64476;55.004;73.342;2023-05-15T03:57:56;100706.13;;;11.18;42.64
69737;BME280;64476;55.004;73.342;2023-05-15T04:01:00;100743.88;;;11.51;42.74
69737;BME280;64476;55.004;73.342;2023-05-15T04:04:34;100753.41;;;11.60;42.77
69737;BME280;64476;55.004;73.342;2023-05-15T04:07:36;100710.47;;;11.43;42.59
69737;BME280;64476;55.004;73.342;2023-05-15T04:10:38;100743.09;;;11.67;42.70
69737;BME280;64476;55.004;73.342;2023-05-15T04:13:39;100713.63;;;11.63;42.13
69737;BME280;64476;55.004;73.342;2023-05-15T04:16:41;100707.88;;;11.68;42.25
69737;BME280;64476;55.004;73.342;2023-05-15T04:19:46;100749.84;;;11.94;42.49
69737;BME280;64476;55.004;73.342;2023-05-15T04:22:48;100748.22;;;12.01;42.27
69737;BME280;64476;55.004;73.342;2023-05-15T04:25:53;100751.69;;;12.10;42.26
69737;BME280;64476;55.004;73.342;2023-05-15T04:28:55;100741.97;;;12.10;41.76
69737;BME280;64476;55.004;73.342;2023-05-15T04:31:59;100740.47;;;12.16;41.89
69737;BME280;64476;55.004;73.342;2023-05-15T04:35:01;100755.25;;;12.41;41.28
69737;BME280;64476;55.004;73.342;2023-05-15T04:38:06;100751.00;;;12.40;41.34
69737;BME280;64476;55.004;73.342;2023-05-15T04:41:08;100752.44;;;12.51;40.97
69737;BME280;64476;55.004;73.342;2023-05-15T04:44:10;100752.28;;;12.61;41.03
69737;BME280;64476;55.004;73.342;2023-05-15T04:47:12;100737.13;;;12.55;41.14
69737;BME280;64476;55.004;73.342;2023-05-15T04:50:14;100711.44;;;12.49;41.35
69737;BME280;64476;55.004;73.342;2023-05-15T04:53:17;100716.97;;;12.70;41.17
69737;BME280;64476;55.004;73.342;2023-05-15T04:56:19;100741.97;;;12.99;41.24
69737;BME280;64476;55.004;73.342;2023-05-15T04:59:25;100743.91;;;13.05;40.67
69737;BME280;64476;55.004;73.342;2023-05-15T05:02:29;100714.44;;;12.93;40.38
69737;BME280;64476;55.004;73.342;2023-05-15T05:06:11;100742.59;;;13.01;40.33
69737;BME280;64476;55.004;73.342;2023-05-15T05:09:14;100728.16;;;12.88;40.26
69737;BME280;64476;55.004;73.342;2023-05-15T05:12:50;100714.97;;;12.88;39.86
69737;BME280;64476;55.004;73.342;2023-05-15T05:15:55;100741.38;;;13.20;39.96
69737;BME280;64476;55.004;73.342;2023-05-15T05:18:57;100760.84;;;13.50;39.34
69737;BME280;64476;55.004;73.342;2023-05-15T05:21:59;100750.28;;;13.50;39.41
69737;BME280;64476;55.004;73.342;2023-05-15T05:25:06;100723.81;;;13.35;39.12
69737;BME280;64476;55.004;73.342;2023-05-15T05:28:42;100764.38;;;13.65;39.17
69737;BME280;64476;55.004;73.342;2023-05-15T05:31:45;100746.88;;;13.64;38.56
69737;BME280;64476;55.004;73.342;2023-05-15T05:34:47;100758.00;;;13.82;39.13
69737;BME280;64476;55.004;73.342;2023-05-15T05:37:49;100731.84;;;13.65;38.76
69737;BME280;64476;55.004;73.342;2023-05-15T05:44:25;100767.44;;;14.00;38.72
69737;BME280;64476;55.004;73.342;2023-05-15T05:47:28;100747.50;;;13.97;38.70
69737;BME280;64476;55.004;73.342;2023-05-15T05:50:37;100741.94;;;14.07;38.00
69737;BME280;64476;55.004;73.342;2023-05-15T05:53:39;100734.22;;;14.05;37.87
69737;BME280;64476;55.004;73.342;2023-05-15T05:56:42;100735.31;;;14.11;37.89
69737;BME280;64476;55.004;73.342;2023-05-15T05:59:44;100777.09;;;14.30;37.65
69737;BME280;64476;55.004;73.342;2023-05-15T06:02:46;100724.25;;;14.07;37.69
69737;BME280;64476;55.004;73.342;2023-05-15T06:05:48;100780.59;;;14.46;37.64
69737;BME280;64476;55.004;73.342;2023-05-15T06:08:51;100735.53;;;14.24;37.21
69737;BME280;64476;55.004;73.342;2023-05-15T06:11:54;100763.53;;;14.48;37.06
69737;BME280;64476;55.004;73.342;2023-05-15T06:15:31;100778.34;;;14.72;37.09
69737;BME280;64476;55.004;73.342;2023-05-15T06:22:08;100743.47;;;14.69;36.62
69737;BME280;64476;55.004;73.342;2023-05-15T06:25:09;100739.56;;;14.65;36.26
69737;BME280;64476;55.004;73.342;2023-05-15T06:28:45;100740.75;;;14.62;36.63
69737;BME280;64476;55.004;73.342;2023-05-15T06:31:47;100764.47;;;14.85;36.47
69737;BME280;64476;55.004;73.342;2023-05-15T06:34:49;100752.81;;;14.79;36.50
69737;BME280;64476;55.004;73.342;2023-05-15T06:37:51;100735.34;;;14.55;36.18
69737;BME280;64476;55.004;73.342;2023-05-15T06:41:25;100751.72;;;14.74;36.32
69737;BME280;64476;55.004;73.342;2023-05-15T06:44:28;100748.19;;;14.81;36.71
69737;BME280;64476;55.004;73.342;2023-05-15T06:47:31;100715.44;;;14.82;36.21
69737;BME280;64476;55.004;73.342;2023-05-15T06:53:39;100729.19;;;14.93;35.60
69737;BME280;64476;55.004;73.342;2023-05-15T06:56:40;100734.53;;;14.99;35.01
69737;BME280;64476;55.004;73.342;2023-05-15T06:59:42;100739.94;;;14.91;34.94
69737;BME280;64476;55.004;73.342;2023-05-15T07:02:44;100739.94;;;15.06;35.10
69737;BME280;64476;55.004;73.342;2023-05-15T07:05:46;100719.47;;;15.00;35.13
69737;BME280;64476;55.004;73.342;2023-05-15T07:08:48;100720.59;;;15.05;34.85
69737;BME280;64476;55.004;73.342;2023-05-15T07:11:49;100743.63;;;15.26;35.03
69737;BME280;64476;55.004;73.342;2023-05-15T07:14:51;100758.09;;;15.45;34.78
69737;BME280;64476;55.004;73.342;2023-05-15T07:17:53;100730.38;;;15.41;34.24
69737;BME280;64476;55.004;73.342;2023-05-15T07:20:55;100745.75;;;15.52;34.07
69737;BME280;64476;55.004;73.342;2023-05-15T07:23:57;100734.13;;;15.68;33.85
69737;BME280;64476;55.004;73.342;2023-05-15T07:26:58;100743.53;;;15.71;34.31
69737;BME280;64476;55.004;73.342;2023-05-15T07:33:35;100734.31;;;15.67;33.59
69737;BME280;64476;55.004;73.342;2023-05-15T07:36:40;100718.97;;;15.62;34.08
69737;BME280;64476;55.004;73.342;2023-05-15T07:39:42;100740.28;;;15.75;33.88
69737;BME280;64476;55.004;73.342;2023-05-15T07:42:44;100746.84;;;15.79;34.13
69737;BME280;64476;55.004;73.342;2023-05-15T07:45:46;100699.97;;;15.59;33.77
69737;BME280;64476;55.004;73.342;2023-05-15T07:48:47;100739.66;;;15.73;33.40
69737;BME280;64476;55.004;73.342;2023-05-15T07:51:49;100715.78;;;15.67;33.40
69737;BME280;64476;55.004;73.342;2023-05-15T07:54:51;100685.53;;;15.61;33.70
69737;BME280;64476;55.004;73.342;2023-05-15T07:57:55;100693.88;;;15.79;33.10
69737;BME280;64476;55.004;73.342;2023-05-15T08:00:56;100720.53;;;15.99;32.88
69737;BME280;64476;55.004;73.342;2023-05-15T08:03:58;100724.88;;;16.07;32.80
69737;BME280;64476;55.004;73.342;2023-05-15T08:07:00;100685.34;;;15.84;33.10
69737;BME280;64476;55.004;73.342;2023-05-15T08:10:02;100718.34;;;16.10;32.75
69737;BME280;64476;55.004;73.342;2023-05-15T08:13:09;100722.03;;;16.37;32.57
69737;BME280;64476;55.004;73.342;2023-05-15T08:16:19;100715.28;;;16.34;31.88
69737;BME280;64476;55.004;73.342;2023-05-15T08:19:28;100707.53;;;16.39;32.38
69737;BME280;64476;55.004;73.342;2023-05-15T08:22:30;100675.47;;;16.27;32.36
69737;BME280;64476;55.004;73.342;2023-05-15T08:25:38;100686.28;;;16.26;31.75
69737;BME280;64476;55.004;73.342;2023-05-15T08:28:40;100698.44;;;16.20;32.18
69737;BME280;64476;55.004;73.342;2023-05-15T08:31:41;100695.56;;;16.15;32.09
69737;BME280;64476;55.004;73.342;2023-05-15T08:34:43;100661.81;;;15.96;32.32
69737;BME280;64476;55.004;73.342;2023-05-15T08:37:45;100680.31;;;16.24;32.37
69737;BME280;64476;55.004;73.342;2023-05-15T08:41:37;100699.84;;;16.44;31.95
69737;BME280;64476;55.004;73.342;2023-05-15T08:45:15;100653.22;;;16.28;32.02
69737;BME280;64476;55.004;73.342;2023-05-15T08:48:18;100660.88;;;16.45;32.21
69737;BME280;64476;55.004;73.342;2023-05-15T08:51:28;100653.59;;;16.54;31.83
69737;BME280;64476;55.004;73.342;2023-05-15T08:54:30;100683.06;;;16.72;31.67
69737;BME280;64476;55.004;73.342;2023-05-15T08:57:32;100655.25;;;16.55;31.54
69737;BME280;64476;55.004;73.342;2023-05-15T09:00:35;100683.44;;;16.62;31.69
69737;BME280;64476;55.004;73.342;2023-05-15T09:03:37;100666.28;;;16.65;31.53
69737;BME280;64476;55.004;73.342;2023-05-15T09:06:40;100623.81;;;16.52;31.59
69737;BME280;64476;55.004;73.342;2023-05-15T09:09:44;100624.97;;;16.49;31.11
69737;BME280;64476;55.004;73.342;2023-05-15T09:12:48;100646.97;;;16.78;31.62
69737;BME280;64476;55.004;73.342;2023-05-15T09:15:51;100628.81;;;16.81;31.36
69737;BME280;64476;55.004;73.342;2023-05-15T09:18:53;100663.94;;;16.90;31.34
69737;BME280;64476;55.004;73.342;2023-05-15T09:21:55;100644.34;;;16.84;31.22
69737;BME280;64476;55.004;73.342;2023-05-15T09:25:07;100653.97;;;16.98;30.91
69737;BME280;64476;55.004;73.342;2023-05-15T09:34:32;100644.84;;;17.21;30.83
69737;BME280;64476;55.004;73.342;2023-05-15T09:37:34;100632.38;;;17.15;30.16
69737;BME280;64476;55.004;73.342;2023-05-15T09:40:37;100612.16;;;17.14;29.95
69737;BME280;64476;55.004;73.342;2023-05-15T09:43:40;100635.44;;;17.32;30.31
69737;BME280;64476;55.004;73.342;2023-05-15T09:46:42;100633.88;;;17.44;29.92
69737;BME280;64476;55.004;73.342;2023-05-15T09:49:44;100628.13;;;17.54;29.83
69737;BME280;64476;55.004;73.342;2023-05-15T09:56:23;100635.28;;;17.46;29.94
69737;BME280;64476;55.004;73.342;2023-05-15T09:59:29;100641.63;;;17.52;30.46
69737;BME280;64476;55.004;73.342;2023-05-15T10:03:58;100634.47;;;17.53;29.87
69737;BME280;64476;55.004;73.342;2023-05-15T10:07:34;100632.63;;;17.33;29.51
69737;BME280;64476;55.004;73.342;2023-05-15T10:10:36;100579.03;;;16.96;29.63
69737;BME280;64476;55.004;73.342;2023-05-15T10:13:39;100625.25;;;17.35;30.14
69737;BME280;64476;55.004;73.342;2023-05-15T10:17:19;100614.88;;;17.40;30.03
69737;BME280;64476;55.004;73.342;2023-05-15T10:20:24;100609.34;;;17.49;30.15
69737;BME280;64476;55.004;73.342;2023-05-15T10:23:27;100602.81;;;17.51;29.99
69737;BME280;64476;55.004;73.342;2023-05-15T10:26:37;100589.31;;;17.53;29.11
69737;BME280;64476;55.004;73.342;2023-05-15T10:29:44;100591.34;;;17.64;29.22
69737;BME280;64476;55.004;73.342;2023-05-15T10:32:48;100607.69;;;17.87;29.33
69737;BME280;64476;55.004;73.342;2023-05-15T10:35:52;100582.34;;;17.91;29.41
69737;BME280;64476;55.004;73.342;2023-05-15T10:39:01;100577.56;;;18.20;28.82
69737;BME280;64476;55.004;73.342;2023-05-15T10:42:05;100606.66;;;18.60;28.34
69737;BME280;64476;55.004;73.342;2023-05-15T10:45:10;100582.78;;;18.47;28.27
69737;BME280;64476;55.004;73.342;2023-05-15T10:48:13;100607.28;;;18.62;27.71
69737;BME280;64476;55.004;73.342;2023-05-15T10:51:24;100570.88;;;18.56;27.77
69737;BME280;64476;55.004;73.342;2023-05-15T10:54:30;100611.38;;;19.03;27.28
69737;BME280;64476;55.004;73.342;2023-05-15T10:57:32;100600.06;;;19.07;27.06
69737;BME280;64476;55.004;73.342;2023-05-15T11:00:40;100556.34;;;18.52;27.24
69737;BME280;64476;55.004;73.342;2023-05-15T11:03:44;100592.78;;;18.58;28.26
69737;BME280;64476;55.004;73.342;2023-05-15T11:06:49;100605.06;;;18.97;27.53
69737;BME280;64476;55.004;73.342;2023-05-15T11:09:52;100561.28;;;19.18;27.34
69737;BME280;64476;55.004;73.342;2023-05-15T11:12:58;100554.38;;;19.60;27.58
69737;BME280;64476;55.004;73.342;2023-05-15T11:16:00;100586.44;;;19.97;27.01
69737;BME280;64476;55.004;73.342;2023-05-15T11:19:02;100559.75;;;19.54;26.90
69737;BME280;64476;55.004;73.342;2023-05-15T11:25:10;100579.06;;;20.48;26.26
69737;BME280;64476;55.004;73.342;2023-05-15T11:28:44;100589.47;;;20.19;26.55
69737;BME280;64476;55.004;73.342;2023-05-15T11:31:48;100574.13;;;19.96;26.80
69737;BME280;64476;55.004;73.342;2023-05-15T11:38:37;100560.53;;;19.11;28.34
69737;BME280;64476;55.004;73.342;2023-05-15T11:41:40;100564.59;;;18.75;28.81
69737;BME280;64476;55.004;73.342;2023-05-15T11:44:45;100533.75;;;18.29;28.82
69737;BME280;64476;55.004;73.342;2023-05-15T11:47:48;100565.44;;;18.31;28.97
69737;BME280;64476;55.004;73.342;2023-05-15T11:50:52;100531.94;;;18.16;29.03
69737;BME280;64476;55.004;73.342;2023-05-15T11:53:54;100575.22;;;18.50;29.08
69737;BME280;64476;55.004;73.342;2023-05-15T11:56:57;100562.44;;;18.21;28.97
69737;BME280;64476;55.004;73.342;2023-05-15T11:59:59;100561.47;;;17.88;29.43
69737;BME280;64476;55.004;73.342;2023-05-15T12:03:02;100541.91;;;17.56;29.80
69737;BME280;64476;55.004;73.342;2023-05-15T12:06:06;100560.09;;;17.53;30.22
69737;BME280;64476;55.004;73.342;2023-05-15T12:09:15;100559.69;;;17.29;30.69
69737;BME280;64476;55.004;73.342;2023-05-15T12:12:19;100566.00;;;17.15;31.03
69737;BME280;64476;55.004;73.342;2023-05-15T12:15:21;100567.00;;;17.01;31.03
69737;BME280;64476;55.004;73.342;2023-05-15T12:18:23;100541.44;;;16.66;31.31
69737;BME280;64476;55.004;73.342;2023-05-15T12:21:26;100536.84;;;16.40;31.35
69737;BME280;64476;55.004;73.342;2023-05-15T12:24:28;100554.56;;;16.40;32.01
69737;BME280;64476;55.004;73.342;2023-05-15T12:27:29;100562.72;;;16.38;32.01
69737;BME280;64476;55.004;73.342;2023-05-15T12:30:32;100549.59;;;16.23;32.38
69737;BME280;64476;55.004;73.342;2023-05-15T12:33:34;100531.66;;;16.19;32.70
69737;BME280;64476;55.004;73.342;2023-05-15T12:36:36;100556.56;;;16.31;32.78
69737;BME280;64476;55.004;73.342;2023-05-15T12:39:49;100559.56;;;16.15;33.10
69737;BME280;64476;55.004;73.342;2023-05-15T12:42:52;100527.66;;;15.95;32.79
69737;BME280;64476;55.004;73.342;2023-05-15T12:45:57;100540.13;;;16.01;33.25
69737;BME280;64476;55.004;73.342;2023-05-15T12:49:37;100500.44;;;15.73;33.62
69737;BME280;64476;55.004;73.342;2023-05-15T12:52:39;100516.56;;;15.78;33.62
69737;BME280;64476;55.004;73.342;2023-05-15T12:55:43;100527.59;;;15.88;33.47
69737;BME280;64476;55.004;73.342;2023-05-15T12:58:47;100528.44;;;15.89;33.49
69737;BME280;64476;55.004;73.342;2023-05-15T13:01:49;100545.81;;;15.98;33.47
69737;BME280;64476;55.004;73.342;2023-05-15T13:04:50;100533.38;;;15.98;33.51
69737;BME280;64476;55.004;73.342;2023-05-15T13:07:53;100538.88;;;15.97;33.77
69737;BME280;64476;55.004;73.342;2023-05-15T13:14:33;100512.69;;;15.74;33.73
69737;BME280;64476;55.004;73.342;2023-05-15T13:17:35;100539.44;;;15.86;33.90
69737;BME280;64476;55.004;73.342;2023-05-15T13:20:47;100522.44;;;15.73;34.18
69737;BME280;64476;55.004;73.342;2023-05-15T13:23:51;100522.59;;;15.65;34.16
69737;BME280;64476;55.004;73.342;2023-05-15T13:26:53;100498.78;;;15.44;34.54
69737;BME280;64476;55.004;73.342;2023-05-15T13:29:56;100529.47;;;15.60;34.51
69737;BME280;64476;55.004;73.342;2023-05-15T13:32:59;100516.56;;;15.50;34.47
69737;BME280;64476;55.004;73.342;2023-05-15T13:36:34;100540.44;;;15.57;34.77
69737;BME280;64476;55.004;73.342;2023-05-15T13:39:36;100532.00;;;15.46;34.70
69737;BME280;64476;55.004;73.342;2023-05-15T13:42:42;100535.91;;;15.50;35.16
69737;BME280;64476;55.004;73.342;2023-05-15T13:45:44;100503.56;;;15.27;35.34
69737;BME280;64476;55.004;73.342;2023-05-15T13:48:49;100530.13;;;15.40;35.63
69737;BME280;64476;55.004;73.342;2023-05-15T13:51:51;100503.06;;;15.17;35.63
69737;BME280;64476;55.004;73.342;2023-05-15T13:54:53;100531.09;;;15.33;35.59
69737;BME280;64476;55.004;73.342;2023-05-15T13:57:56;100535.34;;;15.27;35.51
69737;BME280;64476;55.004;73.342;2023-05-15T14:00:57;100533.22;;;15.16;35.03
69737;BME280;64476;55.004;73.342;2023-05-15T14:03:59;100530.69;;;15.08;35.35
69737;BME280;64476;55.004;73.342;2023-05-15T14:07:01;100539.63;;;15.06;35.17
69737;BME280;64476;55.004;73.342;2023-05-15T14:10:03;100514.13;;;14.77;35.40
69737;BME280;64476;55.004;73.342;2023-05-15T14:13:06;100523.97;;;14.69;35.27
69737;BME280;64476;55.004;73.342;2023-05-15T14:16:08;100545.63;;;14.72;35.58
69737;BME280;64476;55.004;73.342;2023-05-15T14:19:10;100523.50;;;14.44;35.54
69737;BME280;64476;55.004;73.342;2023-05-15T14:22:12;100549.78;;;14.45;36.04
69737;BME280;64476;55.004;73.342;2023-05-15T14:25:13;100544.19;;;14.40;36.31
69737;BME280;64476;55.004;73.342;2023-05-15T14:28:15;100545.50;;;14.29;36.46
69737;BME280;64476;55.004;73.342;2023-05-15T14:31:17;100559.25;;;14.25;36.70
69737;BME280;64476;55.004;73.342;2023-05-15T14:34:25;100512.28;;;13.91;37.27
69737;BME280;64476;55.004;73.342;2023-05-15T14:37:30;100521.59;;;13.86;37.54
69737;BME280;64476;55.004;73.342;2023-05-15T14:40:35;100552.00;;;13.97;37.26
69737;BME280;64476;55.004;73.342;2023-05-15T14:43:38;100550.28;;;13.90;37.66
69737;BME280;64476;55.004;73.342;2023-05-15T14:46:41;100549.38;;;13.82;37.98
69737;BME280;64476;55.004;73.342;2023-05-15T14:49:43;100557.50;;;13.73;38.26
69737;BME280;64476;55.004;73.342;2023-05-15T14:52:45;100508.47;;;13.41;38.63
69737;BME280;64476;55.004;73.342;2023-05-15T14:55:48;100554.84;;;13.58;38.70
69737;BME280;64476;55.004;73.342;2023-05-15T14:58:53;100443.56;;;12.79;39.16
69737;BME280;64476;55.004;73.342;2023-05-15T15:01:55;100509.06;;;13.13;39.38
69737;BME280;64476;55.004;73.342;2023-05-15T15:04:57;100556.88;;;13.33;39.39
69737;BME280;64476;55.004;73.342;2023-05-15T15:08:07;100555.78;;;13.27;39.75
69737;BME280;64476;55.004;73.342;2023-05-15T15:11:09;100534.06;;;13.02;39.93
69737;BME280;64476;55.004;73.342;2023-05-15T15:14:12;100543.25;;;13.06;40.35
69737;BME280;64476;55.004;73.342;2023-05-15T15:17:18;100523.34;;;12.81;40.82
69737;BME280;64476;55.004;73.342;2023-05-15T15:20:20;100528.78;;;12.79;40.72
69737;BME280;64476;55.004;73.342;2023-05-15T15:23:22;100553.28;;;12.88;40.66
69737;BME280;64476;55.004;73.342;2023-05-15T15:26:24;100556.25;;;12.85;40.96
69737;BME280;64476;55.004;73.342;2023-05-15T15:29:29;100533.66;;;12.59;41.46
69737;BME280;64476;55.004;73.342;2023-05-15T15:35:36;100565.75;;;12.63;41.94
69737;BME280;64476;55.004;73.342;2023-05-15T15:38:38;100561.16;;;12.57;42.17
69737;BME280;64476;55.004;73.342;2023-05-15T15:41:43;100568.25;;;12.56;42.61
69737;BME280;64476;55.004;73.342;2023-05-15T15:44:45;100538.09;;;12.28;42.67
69737;BME280;64476;55.004;73.342;2023-05-15T15:47:47;100568.97;;;12.42;42.35
69737;BME280;64476;55.004;73.342;2023-05-15T15:50:49;100565.91;;;12.30;42.80
69737;BME280;64476;55.004;73.342;2023-05-15T15:53:55;100564.13;;;12.23;42.81
69737;BME280;64476;55.004;73.342;2023-05-15T15:56:59;100543.13;;;12.06;42.92
69737;BME280;64476;55.004;73.342;2023-05-15T16:00:04;100577.81;;;12.18;42.90
69737;BME280;64476;55.004;73.342;2023-05-15T16:03:07;100567.16;;;12.03;43.40
69737;BME280;64476;55.004;73.342;2023-05-15T16:06:09;100579.50;;;12.03;43.23
69737;BME280;64476;55.004;73.342;2023-05-15T16:09:10;100563.41;;;11.89;43.56
69737;BME280;64476;55.004;73.342;2023-05-15T16:12:13;100545.66;;;11.75;43.29
69737;BME280;64476;55.004;73.342;2023-05-15T16:15:16;100567.53;;;11.92;43.63
69737;BME280;64476;55.004;73.342;2023-05-15T16:18:19;100563.91;;;11.85;43.94
69737;BME280;64476;55.004;73.342;2023-05-15T16:21:21;100550.13;;;11.66;44.45
69737;BME280;64476;55.004;73.342;2023-05-15T16:24:25;100570.19;;;11.76;44.27
69737;BME280;64476;55.004;73.342;2023-05-15T16:27:27;100570.50;;;11.64;44.22
69737;BME280;64476;55.004;73.342;2023-05-15T16:30:28;100575.75;;;11.64;44.57
69737;BME280;64476;55.004;73.342;2023-05-15T16:33:30;100547.81;;;11.39;44.46
69737;BME280;64476;55.004;73.342;2023-05-15T16:36:35;100541.25;;;11.35;44.21
69737;BME280;64476;55.004;73.342;2023-05-15T16:39:37;100549.31;;;11.33;44.26
69737;BME280;64476;55.004;73.342;2023-05-15T16:42:38;100582.19;;;11.45;44.67
69737;BME280;64476;55.004;73.342;2023-05-15T16:45:44;100585.66;;;11.38;44.91
69737;BME280;64476;55.004;73.342;2023-05-15T16:48:50;100601.09;;;11.41;45.18